CheckWX is a tool to help pilots better visualize weather data.  It is not intended as a substitute for an official pre-flight weather briefing.

05:10:54 UTC

KMYF METAR
Montgomery-Gibbs Executive Airport
San Diego, California, USA
Current

18 mins ago

KMYF 240453Z AUTO 01003KT 10SM CLR 10/02 A3027 RMK AO2 SLP248 T01000022
Observed
Feb-24 @ 04:53 UTC
Wind
  • 010° at 3 KTS
Visibility
10 SM
Flight Rules
VFR
Cloud Levels
  • Clear skies
Temperature
10°C / 50°F
Dewpoint
C / 36°F
Humidity
58%
Altimeter
30.27" Hg
Pressure
1024.8 hPa
Previous

1 hour ago

KMYF 240353Z 00000KT 10SM CLR 10/03 A3026 RMK AO2 SLP247 T01000033
Observed
Feb-24 @ 03:53 UTC
Visibility
10 SM
Flight Rules
VFR
Cloud Levels
  • Clear skies
Temperature
10°C / 50°F
Dewpoint
C / 37°F
Humidity
62%
Altimeter
30.26" Hg
Pressure
1024.7 hPa
Previous

2 hours ago

KMYF 240253Z 36003KT 10SM CLR 11/04 A3026 RMK AO2 SLP247 T01110044 53005
Observed
Feb-24 @ 02:53 UTC
Wind
  • 360° at 3 KTS
Visibility
10 SM
Flight Rules
VFR
Cloud Levels
  • Clear skies
Temperature
11°C / 52°F
Dewpoint
C / 39°F
Humidity
62%
Altimeter
30.26" Hg
Pressure
1024.7 hPa